PMDY METAR and TAF weather

Enter ICAO airport designator
Station Type Date Time Source
PMDY METAR 2019/02/16 07:15 UTC NOAA

PMDY 160715Z AUTO 01012KT BKN026 BKN110 19/14 A3015 RMK AO2 P0001 PWINO $


Station Type Date Time Source
PMDY Decoded METAR 2019/02/16 07:15 UTC NOAA

Sand Island, Henderson Field Airport, HI, United States (PMDY) 28-13N 177-22W 6M
Feb 16, 2019 - 02:15 AM EST / 2019.02.16 0715 UTC
Wind: from the N (010 degrees) at 14 MPH (12 KT):0
Sky conditions: mostly cloudy
Precipitation last hour: 0.01 inches
Temperature: 66 F (19 C)
Dew Point: 57 F (14 C)
Relative Humidity: 72%
Pressure (altimeter): 30.15 in. Hg (1020 hPa)
ob: PMDY 160715Z AUTO 01012KT BKN026 BKN110 19/14 A3015 RMK AO2 P0001 PWINO
cycle: 7

Station Type Date Time Source
PMDY TAF 2019/02/16 06:22 UTC NOAA

TAF PMDY 160520Z 1606/1706 34010KT P6SM SCT025 BKN040
TEMPO 1606/1608 35012G17KT BKN025
FM161200 03010KT P6SM FEW025
FM162100 07011G16KT P6SM FEW025


Example: see airport list